sensor_id;sensor_type;location;lat;lon;timestamp;P1;durP1;ratioP1;P2;durP2;ratioP2
18140;SDS011;9196;49.194;12.526;2022-11-14T00:00:35;38.13;;;27.67;;
18140;SDS011;9196;49.194;12.526;2022-11-14T00:03:03;39.88;;;26.90;;
18140;SDS011;9196;49.194;12.526;2022-11-14T00:05:31;37.35;;;27.20;;
18140;SDS011;9196;49.194;12.526;2022-11-14T00:07:59;34.05;;;25.65;;
18140;SDS011;9196;49.194;12.526;2022-11-14T00:10:25;34.60;;;25.77;;
18140;SDS011;9196;49.194;12.526;2022-11-14T00:12:52;38.83;;;27.40;;
18140;SDS011;9196;49.194;12.526;2022-11-14T00:15:20;38.38;;;28.45;;
18140;SDS011;9196;49.194;12.526;2022-11-14T00:17:47;40.67;;;28.90;;
18140;SDS011;9196;49.194;12.526;2022-11-14T00:20:14;40.65;;;28.70;;
18140;SDS011;9196;49.194;12.526;2022-11-14T00:22:41;35.47;;;26.73;;
18140;SDS011;9196;49.194;12.526;2022-11-14T00:25:08;38.55;;;27.95;;
18140;SDS011;9196;49.194;12.526;2022-11-14T00:27:35;37.25;;;27.75;;
18140;SDS011;9196;49.194;12.526;2022-11-14T00:30:03;39.55;;;27.25;;
18140;SDS011;9196;49.194;12.526;2022-11-14T00:32:31;35.70;;;26.63;;
18140;SDS011;9196;49.194;12.526;2022-11-14T00:34:58;39.42;;;28.25;;
18140;SDS011;9196;49.194;12.526;2022-11-14T00:37:25;39.58;;;26.80;;
18140;SDS011;9196;49.194;12.526;2022-11-14T00:39:52;38.03;;;27.67;;
18140;SDS011;9196;49.194;12.526;2022-11-14T00:42:19;35.47;;;25.15;;
18140;SDS011;9196;49.194;12.526;2022-11-14T00:44:45;38.25;;;25.33;;
18140;SDS011;9196;49.194;12.526;2022-11-14T00:47:12;36.33;;;27.00;;
18140;SDS011;9196;49.194;12.526;2022-11-14T00:49:40;34.72;;;26.45;;
18140;SDS011;9196;49.194;12.526;2022-11-14T00:52:07;35.75;;;27.35;;
18140;SDS011;9196;49.194;12.526;2022-11-14T00:54:34;36.08;;;24.83;;
18140;SDS011;9196;49.194;12.526;2022-11-14T00:57:01;32.28;;;24.40;;
18140;SDS011;9196;49.194;12.526;2022-11-14T00:59:28;36.03;;;25.27;;
18140;SDS011;9196;49.194;12.526;2022-11-14T01:01:55;33.60;;;25.90;;
18140;SDS011;9196;49.194;12.526;2022-11-14T01:04:21;36.70;;;24.98;;
18140;SDS011;9196;49.194;12.526;2022-11-14T01:06:50;35.30;;;26.27;;
18140;SDS011;9196;49.194;12.526;2022-11-14T01:09:16;34.90;;;24.38;;
18140;SDS011;9196;49.194;12.526;2022-11-14T01:11:43;34.60;;;25.17;;
18140;SDS011;9196;49.194;12.526;2022-11-14T01:14:10;40.45;;;27.02;;
18140;SDS011;9196;49.194;12.526;2022-11-14T01:16:37;37.22;;;26.65;;
18140;SDS011;9196;49.194;12.526;2022-11-14T01:19:04;35.38;;;26.40;;
18140;SDS011;9196;49.194;12.526;2022-11-14T01:21:31;32.85;;;24.70;;
18140;SDS011;9196;49.194;12.526;2022-11-14T01:23:59;34.40;;;26.98;;
18140;SDS011;9196;49.194;12.526;2022-11-14T01:26:26;38.78;;;27.05;;
18140;SDS011;9196;49.194;12.526;2022-11-14T01:28:53;34.35;;;25.80;;
18140;SDS011;9196;49.194;12.526;2022-11-14T01:31:20;42.55;;;25.17;;
18140;SDS011;9196;49.194;12.526;2022-11-14T01:33:48;40.17;;;28.00;;
18140;SDS011;9196;49.194;12.526;2022-11-14T01:36:15;33.20;;;24.50;;
18140;SDS011;9196;49.194;12.526;2022-11-14T01:38:42;32.42;;;24.83;;
18140;SDS011;9196;49.194;12.526;2022-11-14T01:41:12;31.02;;;23.55;;
18140;SDS011;9196;49.194;12.526;2022-11-14T01:43:40;32.72;;;23.58;;
18140;SDS011;9196;49.194;12.526;2022-11-14T01:46:09;37.15;;;23.77;;
18140;SDS011;9196;49.194;12.526;2022-11-14T01:48:40;36.42;;;25.50;;
18140;SDS011;9196;49.194;12.526;2022-11-14T01:51:15;34.25;;;25.65;;
18140;SDS011;9196;49.194;12.526;2022-11-14T01:53:47;29.13;;;21.77;;
18140;SDS011;9196;49.194;12.526;2022-11-14T01:56:18;32.33;;;23.02;;
18140;SDS011;9196;49.194;12.526;2022-11-14T01:58:48;30.38;;;22.40;;
18140;SDS011;9196;49.194;12.526;2022-11-14T02:01:18;33.20;;;25.02;;
18140;SDS011;9196;49.194;12.526;2022-11-14T02:03:45;34.92;;;23.77;;
18140;SDS011;9196;49.194;12.526;2022-11-14T02:06:17;32.40;;;23.73;;
18140;SDS011;9196;49.194;12.526;2022-11-14T02:08:46;33.53;;;24.17;;
18140;SDS011;9196;49.194;12.526;2022-11-14T02:11:14;31.05;;;22.90;;
18140;SDS011;9196;49.194;12.526;2022-11-14T02:13:43;33.42;;;24.17;;
18140;SDS011;9196;49.194;12.526;2022-11-14T02:16:09;29.83;;;23.45;;
18140;SDS011;9196;49.194;12.526;2022-11-14T02:18:36;34.25;;;24.95;;
18140;SDS011;9196;49.194;12.526;2022-11-14T02:21:05;35.22;;;23.20;;
18140;SDS011;9196;49.194;12.526;2022-11-14T02:23:32;30.13;;;23.23;;
18140;SDS011;9196;49.194;12.526;2022-11-14T02:25:59;33.63;;;24.73;;
18140;SDS011;9196;49.194;12.526;2022-11-14T02:28:26;32.28;;;23.98;;
18140;SDS011;9196;49.194;12.526;2022-11-14T02:30:53;34.13;;;25.38;;
18140;SDS011;9196;49.194;12.526;2022-11-14T02:33:19;34.53;;;25.88;;
18140;SDS011;9196;49.194;12.526;2022-11-14T02:35:46;36.85;;;25.55;;
18140;SDS011;9196;49.194;12.526;2022-11-14T02:38:14;33.53;;;24.38;;
18140;SDS011;9196;49.194;12.526;2022-11-14T02:40:41;37.75;;;24.67;;
18140;SDS011;9196;49.194;12.526;2022-11-14T02:43:08;32.22;;;23.17;;
18140;SDS011;9196;49.194;12.526;2022-11-14T02:45:35;33.55;;;23.50;;
18140;SDS011;9196;49.194;12.526;2022-11-14T02:48:02;32.75;;;24.10;;
18140;SDS011;9196;49.194;12.526;2022-11-14T02:50:29;35.42;;;24.77;;
18140;SDS011;9196;49.194;12.526;2022-11-14T02:52:56;31.00;;;23.23;;
18140;SDS011;9196;49.194;12.526;2022-11-14T02:55:24;38.53;;;25.92;;
18140;SDS011;9196;49.194;12.526;2022-11-14T02:57:51;32.75;;;22.30;;
18140;SDS011;9196;49.194;12.526;2022-11-14T03:00:18;32.67;;;22.77;;
18140;SDS011;9196;49.194;12.526;2022-11-14T03:02:45;30.95;;;23.00;;
18140;SDS011;9196;49.194;12.526;2022-11-14T03:05:12;27.85;;;21.90;;
18140;SDS011;9196;49.194;12.526;2022-11-14T03:07:39;34.00;;;24.20;;
18140;SDS011;9196;49.194;12.526;2022-11-14T03:10:06;31.42;;;22.00;;
18140;SDS011;9196;49.194;12.526;2022-11-14T03:12:35;31.10;;;22.67;;
18140;SDS011;9196;49.194;12.526;2022-11-14T03:15:02;35.75;;;22.73;;
18140;SDS011;9196;49.194;12.526;2022-11-14T03:17:29;31.58;;;22.15;;
18140;SDS011;9196;49.194;12.526;2022-11-14T03:19:56;25.55;;;21.33;;
18140;SDS011;9196;49.194;12.526;2022-11-14T03:22:23;27.10;;;21.08;;
18140;SDS011;9196;49.194;12.526;2022-11-14T03:24:50;32.05;;;21.10;;
18140;SDS011;9196;49.194;12.526;2022-11-14T03:27:17;25.08;;;20.52;;
18140;SDS011;9196;49.194;12.526;2022-11-14T03:29:46;26.48;;;20.60;;
18140;SDS011;9196;49.194;12.526;2022-11-14T03:32:13;28.77;;;21.50;;
18140;SDS011;9196;49.194;12.526;2022-11-14T03:34:39;31.00;;;23.05;;
18140;SDS011;9196;49.194;12.526;2022-11-14T03:37:07;29.17;;;23.45;;
18140;SDS011;9196;49.194;12.526;2022-11-14T03:39:33;27.92;;;22.00;;
18140;SDS011;9196;49.194;12.526;2022-11-14T03:42:00;30.10;;;21.85;;
18140;SDS011;9196;49.194;12.526;2022-11-14T03:44:27;30.40;;;22.25;;
18140;SDS011;9196;49.194;12.526;2022-11-14T03:46:55;26.50;;;21.10;;
18140;SDS011;9196;49.194;12.526;2022-11-14T03:49:22;25.90;;;19.77;;
18140;SDS011;9196;49.194;12.526;2022-11-14T03:51:49;31.95;;;21.90;;
18140;SDS011;9196;49.194;12.526;2022-11-14T03:54:16;28.42;;;21.05;;
18140;SDS011;9196;49.194;12.526;2022-11-14T03:56:43;26.27;;;20.80;;
18140;SDS011;9196;49.194;12.526;2022-11-14T03:59:09;30.17;;;21.13;;
18140;SDS011;9196;49.194;12.526;2022-11-14T04:01:36;30.63;;;21.98;;
18140;SDS011;9196;49.194;12.526;2022-11-14T04:04:04;25.10;;;20.90;;
18140;SDS011;9196;49.194;12.526;2022-11-14T04:06:31;25.25;;;20.58;;
18140;SDS011;9196;49.194;12.526;2022-11-14T04:08:58;27.42;;;20.10;;
18140;SDS011;9196;49.194;12.526;2022-11-14T04:11:25;31.33;;;21.63;;
18140;SDS011;9196;49.194;12.526;2022-11-14T04:13:52;26.75;;;18.98;;
18140;SDS011;9196;49.194;12.526;2022-11-14T04:16:18;26.08;;;19.38;;
18140;SDS011;9196;49.194;12.526;2022-11-14T04:18:45;27.63;;;19.13;;
18140;SDS011;9196;49.194;12.526;2022-11-14T04:21:14;23.83;;;19.55;;
18140;SDS011;9196;49.194;12.526;2022-11-14T04:23:40;23.10;;;18.55;;
18140;SDS011;9196;49.194;12.526;2022-11-14T04:26:07;23.60;;;18.25;;
18140;SDS011;9196;49.194;12.526;2022-11-14T04:28:34;24.98;;;18.48;;
18140;SDS011;9196;49.194;12.526;2022-11-14T04:31:01;23.70;;;18.25;;
18140;SDS011;9196;49.194;12.526;2022-11-14T04:33:28;28.02;;;18.95;;
18140;SDS011;9196;49.194;12.526;2022-11-14T04:35:55;26.27;;;19.25;;
18140;SDS011;9196;49.194;12.526;2022-11-14T04:38:23;22.27;;;17.90;;
18140;SDS011;9196;49.194;12.526;2022-11-14T04:40:50;25.10;;;17.95;;
18140;SDS011;9196;49.194;12.526;2022-11-14T04:43:18;23.63;;;17.98;;
18140;SDS011;9196;49.194;12.526;2022-11-14T04:45:46;27.30;;;20.38;;
18140;SDS011;9196;49.194;12.526;2022-11-14T04:48:13;26.90;;;18.88;;
18140;SDS011;9196;49.194;12.526;2022-11-14T04:50:39;27.17;;;20.20;;
18140;SDS011;9196;49.194;12.526;2022-11-14T04:53:06;25.60;;;19.00;;
18140;SDS011;9196;49.194;12.526;2022-11-14T04:55:34;22.60;;;18.20;;
18140;SDS011;9196;49.194;12.526;2022-11-14T04:58:01;30.40;;;20.35;;
18140;SDS011;9196;49.194;12.526;2022-11-14T05:00:28;26.42;;;20.02;;
18140;SDS011;9196;49.194;12.526;2022-11-14T05:02:57;24.45;;;18.70;;
18140;SDS011;9196;49.194;12.526;2022-11-14T05:05:24;28.73;;;20.10;;
18140;SDS011;9196;49.194;12.526;2022-11-14T05:07:51;23.58;;;18.45;;
18140;SDS011;9196;49.194;12.526;2022-11-14T05:10:19;23.77;;;19.77;;
18140;SDS011;9196;49.194;12.526;2022-11-14T05:12:47;23.92;;;18.17;;
18140;SDS011;9196;49.194;12.526;2022-11-14T05:15:14;28.02;;;20.55;;
18140;SDS011;9196;49.194;12.526;2022-11-14T05:17:41;30.92;;;20.38;;
18140;SDS011;9196;49.194;12.526;2022-11-14T05:20:08;27.08;;;19.35;;
18140;SDS011;9196;49.194;12.526;2022-11-14T05:22:35;32.38;;;22.73;;
18140;SDS011;9196;49.194;12.526;2022-11-14T05:25:02;33.22;;;22.35;;
18140;SDS011;9196;49.194;12.526;2022-11-14T05:27:30;27.92;;;20.13;;
18140;SDS011;9196;49.194;12.526;2022-11-14T05:29:58;26.63;;;19.63;;
18140;SDS011;9196;49.194;12.526;2022-11-14T05:32:25;32.38;;;20.98;;
18140;SDS011;9196;49.194;12.526;2022-11-14T05:34:52;33.95;;;24.40;;
18140;SDS011;9196;49.194;12.526;2022-11-14T05:37:19;28.45;;;21.00;;
18140;SDS011;9196;49.194;12.526;2022-11-14T05:39:45;27.95;;;20.58;;
18140;SDS011;9196;49.194;12.526;2022-11-14T05:42:12;25.10;;;19.45;;
18140;SDS011;9196;49.194;12.526;2022-11-14T05:44:39;26.13;;;20.23;;
18140;SDS011;9196;49.194;12.526;2022-11-14T05:47:07;28.13;;;20.17;;
18140;SDS011;9196;49.194;12.526;2022-11-14T05:49:34;29.08;;;21.40;;
18140;SDS011;9196;49.194;12.526;2022-11-14T05:52:01;26.45;;;19.23;;
18140;SDS011;9196;49.194;12.526;2022-11-14T05:54:28;25.35;;;19.67;;
18140;SDS011;9196;49.194;12.526;2022-11-14T05:56:54;28.42;;;20.38;;
18140;SDS011;9196;49.194;12.526;2022-11-14T05:59:21;25.52;;;19.73;;
18140;SDS011;9196;49.194;12.526;2022-11-14T06:01:48;24.08;;;17.73;;
18140;SDS011;9196;49.194;12.526;2022-11-14T06:04:16;24.88;;;19.05;;
18140;SDS011;9196;49.194;12.526;2022-11-14T06:06:43;23.90;;;18.48;;
18140;SDS011;9196;49.194;12.526;2022-11-14T06:09:10;22.92;;;17.42;;
18140;SDS011;9196;49.194;12.526;2022-11-14T06:11:37;23.60;;;18.83;;
18140;SDS011;9196;49.194;12.526;2022-11-14T06:14:04;27.67;;;18.95;;
18140;SDS011;9196;49.194;12.526;2022-11-14T06:16:31;25.33;;;17.67;;
18140;SDS011;9196;49.194;12.526;2022-11-14T06:18:58;26.25;;;18.67;;
18140;SDS011;9196;49.194;12.526;2022-11-14T06:21:26;28.48;;;20.70;;
18140;SDS011;9196;49.194;12.526;2022-11-14T06:23:53;27.65;;;19.63;;
18140;SDS011;9196;49.194;12.526;2022-11-14T06:26:20;23.83;;;18.42;;
18140;SDS011;9196;49.194;12.526;2022-11-14T06:28:49;26.92;;;18.83;;
18140;SDS011;9196;49.194;12.526;2022-11-14T06:31:17;23.25;;;18.83;;
18140;SDS011;9196;49.194;12.526;2022-11-14T06:33:45;23.50;;;17.40;;
18140;SDS011;9196;49.194;12.526;2022-11-14T06:36:12;27.58;;;19.83;;
18140;SDS011;9196;49.194;12.526;2022-11-14T06:38:40;25.40;;;18.83;;
18140;SDS011;9196;49.194;12.526;2022-11-14T06:41:09;23.15;;;17.98;;
18140;SDS011;9196;49.194;12.526;2022-11-14T06:43:37;26.35;;;20.15;;
18140;SDS011;9196;49.194;12.526;2022-11-14T06:46:06;21.63;;;17.05;;
18140;SDS011;9196;49.194;12.526;2022-11-14T06:48:34;24.17;;;18.60;;
18140;SDS011;9196;49.194;12.526;2022-11-14T06:51:02;21.40;;;17.60;;
18140;SDS011;9196;49.194;12.526;2022-11-14T06:53:30;30.48;;;19.10;;
18140;SDS011;9196;49.194;12.526;2022-11-14T06:56:02;24.50;;;18.63;;
18140;SDS011;9196;49.194;12.526;2022-11-14T06:58:31;28.00;;;20.02;;
18140;SDS011;9196;49.194;12.526;2022-11-14T07:01:02;29.08;;;20.33;;
18140;SDS011;9196;49.194;12.526;2022-11-14T07:03:30;23.30;;;18.80;;
18140;SDS011;9196;49.194;12.526;2022-11-14T07:05:57;27.27;;;19.83;;
18140;SDS011;9196;49.194;12.526;2022-11-14T07:08:24;27.70;;;19.83;;
18140;SDS011;9196;49.194;12.526;2022-11-14T07:10:51;25.00;;;19.45;;
18140;SDS011;9196;49.194;12.526;2022-11-14T07:13:32;23.98;;;18.42;;
18140;SDS011;9196;49.194;12.526;2022-11-14T07:16:01;24.83;;;18.27;;
18140;SDS011;9196;49.194;12.526;2022-11-14T07:18:28;25.98;;;19.73;;
18140;SDS011;9196;49.194;12.526;2022-11-14T07:20:56;22.45;;;18.25;;
18140;SDS011;9196;49.194;12.526;2022-11-14T07:23:24;25.48;;;19.63;;
18140;SDS011;9196;49.194;12.526;2022-11-14T07:25:51;23.67;;;17.38;;
18140;SDS011;9196;49.194;12.526;2022-11-14T07:28:19;21.40;;;17.67;;
18140;SDS011;9196;49.194;12.526;2022-11-14T07:30:46;23.45;;;17.27;;
18140;SDS011;9196;49.194;12.526;2022-11-14T07:33:13;20.70;;;16.70;;
18140;SDS011;9196;49.194;12.526;2022-11-14T07:35:40;19.67;;;16.38;;
18140;SDS011;9196;49.194;12.526;2022-11-14T07:38:07;22.10;;;16.73;;
18140;SDS011;9196;49.194;12.526;2022-11-14T07:40:33;18.60;;;15.88;;
18140;SDS011;9196;49.194;12.526;2022-11-14T07:43:00;23.95;;;17.58;;
18140;SDS011;9196;49.194;12.526;2022-11-14T07:45:29;25.10;;;17.73;;
18140;SDS011;9196;49.194;12.526;2022-11-14T07:47:56;20.58;;;15.82;;
18140;SDS011;9196;49.194;12.526;2022-11-14T07:50:25;26.10;;;18.50;;
18140;SDS011;9196;49.194;12.526;2022-11-14T07:52:56;23.58;;;16.77;;
18140;SDS011;9196;49.194;12.526;2022-11-14T07:55:27;17.98;;;15.10;;
18140;SDS011;9196;49.194;12.526;2022-11-14T07:57:57;19.88;;;15.25;;
18140;SDS011;9196;49.194;12.526;2022-11-14T08:00:24;18.65;;;14.95;;
18140;SDS011;9196;49.194;12.526;2022-11-14T08:03:07;18.92;;;14.90;;
18140;SDS011;9196;49.194;12.526;2022-11-14T08:05:34;22.42;;;16.73;;
18140;SDS011;9196;49.194;12.526;2022-11-14T08:08:01;19.33;;;14.45;;
18140;SDS011;9196;49.194;12.526;2022-11-14T08:10:28;19.10;;;15.05;;
18140;SDS011;9196;49.194;12.526;2022-11-14T08:12:56;20.08;;;15.95;;
18140;SDS011;9196;49.194;12.526;2022-11-14T08:15:24;21.70;;;15.00;;
18140;SDS011;9196;49.194;12.526;2022-11-14T08:17:51;21.75;;;16.10;;
18140;SDS011;9196;49.194;12.526;2022-11-14T08:20:19;20.73;;;16.15;;
18140;SDS011;9196;49.194;12.526;2022-11-14T08:22:46;20.35;;;16.33;;
18140;SDS011;9196;49.194;12.526;2022-11-14T08:25:13;21.30;;;15.55;;
18140;SDS011;9196;49.194;12.526;2022-11-14T08:27:40;19.00;;;16.20;;
18140;SDS011;9196;49.194;12.526;2022-11-14T08:30:07;20.83;;;15.75;;
18140;SDS011;9196;49.194;12.526;2022-11-14T08:32:35;19.25;;;15.70;;
18140;SDS011;9196;49.194;12.526;2022-11-14T08:35:01;18.42;;;15.70;;
18140;SDS011;9196;49.194;12.526;2022-11-14T08:37:30;20.50;;;15.07;;
18140;SDS011;9196;49.194;12.526;2022-11-14T08:39:57;22.35;;;16.13;;
18140;SDS011;9196;49.194;12.526;2022-11-14T08:42:24;19.98;;;16.02;;
18140;SDS011;9196;49.194;12.526;2022-11-14T08:44:50;19.10;;;16.52;;
18140;SDS011;9196;49.194;12.526;2022-11-14T08:47:17;19.63;;;15.95;;
18140;SDS011;9196;49.194;12.526;2022-11-14T08:49:44;18.83;;;15.98;;
18140;SDS011;9196;49.194;12.526;2022-11-14T08:52:11;18.88;;;15.20;;
18140;SDS011;9196;49.194;12.526;2022-11-14T08:54:39;20.80;;;15.10;;
18140;SDS011;9196;49.194;12.526;2022-11-14T08:57:06;19.63;;;14.35;;
18140;SDS011;9196;49.194;12.526;2022-11-14T08:59:33;16.52;;;14.65;;
18140;SDS011;9196;49.194;12.526;2022-11-14T09:02:00;19.98;;;16.40;;
18140;SDS011;9196;49.194;12.526;2022-11-14T09:04:27;16.58;;;14.32;;
18140;SDS011;9196;49.194;12.526;2022-11-14T09:06:54;19.85;;;14.05;;
18140;SDS011;9196;49.194;12.526;2022-11-14T09:09:22;17.55;;;14.98;;
18140;SDS011;9196;49.194;12.526;2022-11-14T09:11:51;15.60;;;13.68;;
18140;SDS011;9196;49.194;12.526;2022-11-14T09:14:17;19.23;;;14.60;;
18140;SDS011;9196;49.194;12.526;2022-11-14T09:16:45;18.70;;;13.80;;
18140;SDS011;9196;49.194;12.526;2022-11-14T09:19:12;18.73;;;14.38;;
18140;SDS011;9196;49.194;12.526;2022-11-14T09:21:39;18.38;;;13.95;;
18140;SDS011;9196;49.194;12.526;2022-11-14T09:24:06;18.85;;;15.30;;
18140;SDS011;9196;49.194;12.526;2022-11-14T09:26:33;16.52;;;13.25;;
18140;SDS011;9196;49.194;12.526;2022-11-14T09:29:01;14.38;;;12.55;;
18140;SDS011;9196;49.194;12.526;2022-11-14T09:31:30;14.02;;;12.45;;
18140;SDS011;9196;49.194;12.526;2022-11-14T09:33:57;14.23;;;12.20;;
18140;SDS011;9196;49.194;12.526;2022-11-14T09:36:24;15.57;;;13.70;;
18140;SDS011;9196;49.194;12.526;2022-11-14T09:38:51;16.75;;;13.35;;
18140;SDS011;9196;49.194;12.526;2022-11-14T09:41:21;19.83;;;14.73;;
18140;SDS011;9196;49.194;12.526;2022-11-14T09:44:07;14.90;;;13.05;;
18140;SDS011;9196;49.194;12.526;2022-11-14T09:46:47;16.73;;;13.32;;
18140;SDS011;9196;49.194;12.526;2022-11-14T09:49:22;15.27;;;12.20;;
18140;SDS011;9196;49.194;12.526;2022-11-14T09:51:54;15.15;;;12.43;;
18140;SDS011;9196;49.194;12.526;2022-11-14T09:54:26;17.30;;;12.90;;
18140;SDS011;9196;49.194;12.526;2022-11-14T09:56:58;13.90;;;11.70;;
18140;SDS011;9196;49.194;12.526;2022-11-14T09:59:26;14.75;;;12.50;;
18140;SDS011;9196;49.194;12.526;2022-11-14T10:01:56;15.32;;;12.05;;
18140;SDS011;9196;49.194;12.526;2022-11-14T10:04:35;15.27;;;13.02;;
18140;SDS011;9196;49.194;12.526;2022-11-14T10:07:15;17.00;;;13.52;;
18140;SDS011;9196;49.194;12.526;2022-11-14T10:09:56;19.10;;;14.85;;
18140;SDS011;9196;49.194;12.526;2022-11-14T10:12:32;16.00;;;12.70;;
18140;SDS011;9196;49.194;12.526;2022-11-14T10:15:09;15.43;;;12.83;;
18140;SDS011;9196;49.194;12.526;2022-11-14T10:17:44;13.82;;;12.32;;
18140;SDS011;9196;49.194;12.526;2022-11-14T10:20:23;14.55;;;12.93;;
18140;SDS011;9196;49.194;12.526;2022-11-14T10:23:04;14.50;;;13.00;;
18140;SDS011;9196;49.194;12.526;2022-11-14T10:25:42;14.10;;;12.30;;
18140;SDS011;9196;49.194;12.526;2022-11-14T10:28:23;14.20;;;11.60;;
18140;SDS011;9196;49.194;12.526;2022-11-14T10:31:02;16.00;;;11.83;;
18140;SDS011;9196;49.194;12.526;2022-11-14T10:33:35;16.57;;;12.50;;
18140;SDS011;9196;49.194;12.526;2022-11-14T10:36:13;12.10;;;10.80;;
18140;SDS011;9196;49.194;12.526;2022-11-14T10:38:49;14.13;;;11.53;;
18140;SDS011;9196;49.194;12.526;2022-11-14T10:41:20;13.57;;;12.13;;
18140;SDS011;9196;49.194;12.526;2022-11-14T10:43:50;13.60;;;12.20;;
18140;SDS011;9196;49.194;12.526;2022-11-14T10:46:21;16.33;;;12.67;;
18140;SDS011;9196;49.194;12.526;2022-11-14T10:48:52;13.87;;;11.20;;
18140;SDS011;9196;49.194;12.526;2022-11-14T10:51:21;13.57;;;10.90;;
18140;SDS011;9196;49.194;12.526;2022-11-14T10:53:54;12.67;;;10.67;;
18140;SDS011;9196;49.194;12.526;2022-11-14T10:56:25;12.07;;;10.70;;
18140;SDS011;9196;49.194;12.526;2022-11-14T10:58:52;13.33;;;11.33;;
18140;SDS011;9196;49.194;12.526;2022-11-14T11:01:33;12.87;;;11.07;;
18140;SDS011;9196;49.194;12.526;2022-11-14T11:04:12;15.83;;;12.13;;
18140;SDS011;9196;49.194;12.526;2022-11-14T11:06:46;13.07;;;11.60;;
18140;SDS011;9196;49.194;12.526;2022-11-14T11:09:15;13.43;;;11.67;;
18140;SDS011;9196;49.194;12.526;2022-11-14T11:12:01;15.10;;;12.00;;
18140;SDS011;9196;49.194;12.526;2022-11-14T11:14:30;14.70;;;12.97;;
18140;SDS011;9196;49.194;12.526;2022-11-14T11:17:11;14.40;;;12.40;;
18140;SDS011;9196;49.194;12.526;2022-11-14T11:19:45;13.50;;;12.10;;
18140;SDS011;9196;49.194;12.526;2022-11-14T11:22:23;13.67;;;12.10;;
18140;SDS011;9196;49.194;12.526;2022-11-14T11:24:53;13.97;;;12.03;;
18140;SDS011;9196;49.194;12.526;2022-11-14T11:27:21;12.40;;;11.13;;
18140;SDS011;9196;49.194;12.526;2022-11-14T11:30:03;13.50;;;12.07;;
18140;SDS011;9196;49.194;12.526;2022-11-14T11:32:35;15.00;;;12.07;;
18140;SDS011;9196;49.194;12.526;2022-11-14T11:35:02;14.33;;;11.20;;
18140;SDS011;9196;49.194;12.526;2022-11-14T11:37:35;13.90;;;10.70;;
18140;SDS011;9196;49.194;12.526;2022-11-14T11:40:09;13.27;;;10.87;;
18140;SDS011;9196;49.194;12.526;2022-11-14T11:42:42;11.33;;;10.13;;
18140;SDS011;9196;49.194;12.526;2022-11-14T11:45:16;12.90;;;10.10;;
18140;SDS011;9196;49.194;12.526;2022-11-14T11:47:45;14.40;;;10.60;;
18140;SDS011;9196;49.194;12.526;2022-11-14T11:50:18;12.03;;;9.90;;
18140;SDS011;9196;49.194;12.526;2022-11-14T11:52:47;23.70;;;10.80;;
18140;SDS011;9196;49.194;12.526;2022-11-14T11:55:19;11.33;;;9.50;;
18140;SDS011;9196;49.194;12.526;2022-11-14T11:57:50;11.37;;;9.90;;
18140;SDS011;9196;49.194;12.526;2022-11-14T12:00:24;11.27;;;10.10;;
18140;SDS011;9196;49.194;12.526;2022-11-14T12:02:53;11.37;;;9.90;;
18140;SDS011;9196;49.194;12.526;2022-11-14T12:05:23;11.60;;;10.40;;
18140;SDS011;9196;49.194;12.526;2022-11-14T12:07:54;12.90;;;11.03;;
18140;SDS011;9196;49.194;12.526;2022-11-14T12:10:26;12.70;;;11.40;;
18140;SDS011;9196;49.194;12.526;2022-11-14T12:13:03;14.83;;;10.70;;
18140;SDS011;9196;49.194;12.526;2022-11-14T12:15:49;12.13;;;10.37;;
18140;SDS011;9196;49.194;12.526;2022-11-14T12:18:39;11.00;;;9.60;;
18140;SDS011;9196;49.194;12.526;2022-11-14T12:21:33;12.13;;;10.63;;
18140;SDS011;9196;49.194;12.526;2022-11-14T12:24:22;14.40;;;11.87;;
18140;SDS011;9196;49.194;12.526;2022-11-14T12:27:09;14.20;;;11.70;;
18140;SDS011;9196;49.194;12.526;2022-11-14T12:30:06;11.67;;;10.50;;
18140;SDS011;9196;49.194;12.526;2022-11-14T12:32:38;11.50;;;10.27;;
18140;SDS011;9196;49.194;12.526;2022-11-14T12:35:13;13.00;;;10.77;;
18140;SDS011;9196;49.194;12.526;2022-11-14T12:37:44;18.07;;;12.17;;
18140;SDS011;9196;49.194;12.526;2022-11-14T12:40:18;10.50;;;9.47;;
18140;SDS011;9196;49.194;12.526;2022-11-14T12:42:54;12.53;;;10.80;;
18140;SDS011;9196;49.194;12.526;2022-11-14T12:48:34;16.50;;;13.30;;
18140;SDS011;9196;49.194;12.526;2022-11-14T12:51:05;12.90;;;11.20;;
18140;SDS011;9196;49.194;12.526;2022-11-14T12:57:13;12.10;;;10.80;;
18140;SDS011;9196;49.194;12.526;2022-11-14T13:00:06;14.27;;;12.77;;
18140;SDS011;9196;49.194;12.526;2022-11-14T13:02:39;12.90;;;11.60;;
18140;SDS011;9196;49.194;12.526;2022-11-14T13:05:22;15.60;;;12.80;;
18140;SDS011;9196;49.194;12.526;2022-11-14T13:08:17;15.97;;;13.03;;
18140;SDS011;9196;49.194;12.526;2022-11-14T13:14:19;16.07;;;13.60;;
18140;SDS011;9196;49.194;12.526;2022-11-14T13:17:09;17.13;;;13.10;;
18140;SDS011;9196;49.194;12.526;2022-11-14T13:20:27;15.73;;;14.13;;
18140;SDS011;9196;49.194;12.526;2022-11-14T13:26:38;16.27;;;12.83;;
18140;SDS011;9196;49.194;12.526;2022-11-14T13:35:36;14.80;;;12.23;;
18140;SDS011;9196;49.194;12.526;2022-11-14T13:41:56;15.43;;;13.40;;
18140;SDS011;9196;49.194;12.526;2022-11-14T13:44:47;13.63;;;12.20;;
18140;SDS011;9196;49.194;12.526;2022-11-14T13:47:36;18.67;;;13.10;;
18140;SDS011;9196;49.194;12.526;2022-11-14T13:50:23;14.53;;;12.37;;
18140;SDS011;9196;49.194;12.526;2022-11-14T13:52:53;13.73;;;12.43;;
18140;SDS011;9196;49.194;12.526;2022-11-14T13:55:22;15.90;;;14.30;;
18140;SDS011;9196;49.194;12.526;2022-11-14T13:57:56;16.07;;;13.87;;
18140;SDS011;9196;49.194;12.526;2022-11-14T14:00:39;17.20;;;14.47;;
18140;SDS011;9196;49.194;12.526;2022-11-14T14:03:22;15.70;;;14.03;;
18140;SDS011;9196;49.194;12.526;2022-11-14T14:06:10;17.57;;;12.50;;
18140;SDS011;9196;49.194;12.526;2022-11-14T14:08:50;14.60;;;12.70;;
18140;SDS011;9196;49.194;12.526;2022-11-14T14:11:37;17.93;;;13.70;;
18140;SDS011;9196;49.194;12.526;2022-11-14T14:14:17;18.30;;;14.40;;
18140;SDS011;9196;49.194;12.526;2022-11-14T14:16:59;14.43;;;12.40;;
18140;SDS011;9196;49.194;12.526;2022-11-14T14:19:35;15.30;;;13.30;;
18140;SDS011;9196;49.194;12.526;2022-11-14T14:22:14;14.93;;;13.23;;
18140;SDS011;9196;49.194;12.526;2022-11-14T14:24:52;17.77;;;15.07;;
18140;SDS011;9196;49.194;12.526;2022-11-14T14:27:28;14.60;;;13.10;;
18140;SDS011;9196;49.194;12.526;2022-11-14T14:30:03;15.10;;;13.03;;
18140;SDS011;9196;49.194;12.526;2022-11-14T14:32:34;17.20;;;15.30;;
18140;SDS011;9196;49.194;12.526;2022-11-14T14:37:50;20.53;;;14.60;;
18140;SDS011;9196;49.194;12.526;2022-11-14T14:40:22;14.17;;;12.10;;
18140;SDS011;9196;49.194;12.526;2022-11-14T14:42:53;22.30;;;16.43;;
18140;SDS011;9196;49.194;12.526;2022-11-14T14:45:21;19.43;;;16.63;;
18140;SDS011;9196;49.194;12.526;2022-11-14T14:47:50;22.70;;;17.67;;
18140;SDS011;9196;49.194;12.526;2022-11-14T14:50:26;27.33;;;19.30;;
18140;SDS011;9196;49.194;12.526;2022-11-14T14:52:56;17.93;;;15.57;;
18140;SDS011;9196;49.194;12.526;2022-11-14T14:55:25;15.63;;;13.67;;
18140;SDS011;9196;49.194;12.526;2022-11-14T14:57:54;16.97;;;15.17;;
18140;SDS011;9196;49.194;12.526;2022-11-14T15:00:22;20.30;;;17.27;;
18140;SDS011;9196;49.194;12.526;2022-11-14T15:02:51;22.70;;;18.40;;
18140;SDS011;9196;49.194;12.526;2022-11-14T15:05:22;21.67;;;18.47;;